Time;durP1;ratioP1;P1;durP2;ratioP2;P2;SDS_P1;SDS_P2;PMS_P1;PMS_P2;Temp;Humidity;BMP_temperature;BMP_pressure;BME280_temperature;BME280_humidity;BME280_pressure;Samples;Min_cycle;Max_cycle;Signal;HPM_P1;HPM_P2
2022/02/05 00:00:46;;;;;;;4.40;4.00;;;;;;;7.67;100.00;96152.78;4978377;28;20077;-53
2022/02/05 00:03:21;;;;;;;5.07;4.57;;;;;;;7.68;100.00;96151.84;4983416;28;20062;-51
2022/02/05 00:05:53;;;;;;;4.35;3.70;;;;;;;7.58;100.00;96157.06;4983857;28;20078;-50
2022/02/05 00:08:43;;;;;;;5.97;4.75;;;;;;;7.58;100.00;96161.47;4986027;28;20082;-50
2022/02/05 00:11:54;;;;;;;4.70;4.20;;;;;;;7.67;100.00;96165.09;4980858;28;20485;-50
2022/02/05 00:14:45;;;;;;;5.25;4.05;;;;;;;7.60;100.00;96162.16;4985897;28;20579;-52
2022/02/05 00:42:15;;;;;;;5.00;3.88;;;;;;;7.51;100.00;96179.53;4973651;28;20069;-58
2022/02/05 00:44:45;;;;;;;7.47;4.32;;;;;;;7.48;100.00;96206.03;4983997;28;20101;-53
2022/02/05 00:47:13;;;;;;;4.23;3.70;;;;;;;7.35;100.00;96208.06;4985925;28;20109;-55
2022/02/05 00:49:42;;;;;;;5.45;3.67;;;;;;;7.23;100.00;96283.38;4979380;28;20529;-53
2022/02/05 00:52:12;;;;;;;3.10;2.90;;;;;;;4.47;100.00;96311.81;4984157;28;20492;-54
2022/02/05 00:54:45;;;;;;;2.90;2.70;;;;;;;3.74;100.00;96321.31;4981840;28;20046;-52
2022/02/05 00:57:32;;;;;;;2.72;2.63;;;;;;;3.77;100.00;96335.91;4981387;28;20524;-57
2022/02/05 01:00:02;;;;;;;3.03;2.90;;;;;;;3.81;100.00;96338.19;4980857;28;20576;-54
2022/02/05 01:02:31;;;;;;;3.17;2.97;;;;;;;3.89;100.00;96329.88;4983553;28;20141;-58
2022/02/05 01:04:59;;;;;;;3.05;2.90;;;;;;;4.09;100.00;96319.78;4960264;28;20469;-53
2022/02/05 01:07:27;;;;;;;3.50;3.20;;;;;;;4.08;100.00;96345.06;4978664;28;20077;-51
2022/02/05 01:09:56;;;;;;;3.10;2.90;;;;;;;4.08;100.00;96331.16;4984931;28;20062;-55
2022/02/05 01:12:26;;;;;;;3.20;3.00;;;;;;;4.18;100.00;96337.41;4984691;28;20556;-54
2022/02/05 01:14:58;;;;;;;3.60;3.38;;;;;;;4.22;100.00;96333.63;4983984;28;20077;-56
2022/02/05 01:17:33;;;;;;;3.10;2.90;;;;;;;4.32;100.00;96344.25;4984214;28;20077;-52
2022/02/05 01:22:48;;;;;;;3.10;2.95;;;;;;;4.35;100.00;96365.75;4982602;28;20531;-57
2022/02/05 01:25:21;;;;;;;3.53;3.33;;;;;;;4.36;100.00;96350.94;4985216;28;20069;-51
2022/02/05 01:27:54;;;;;;;3.40;3.20;;;;;;;4.47;100.00;96366.66;4986830;28;20074;-57
2022/02/05 01:30:26;;;;;;;3.40;3.20;;;;;;;4.46;100.00;96370.22;4982141;28;20667;-55
2022/02/05 01:33:07;;;;;;;3.40;3.10;;;;;;;4.46;100.00;96384.09;4984742;28;20074;-54
2022/02/05 01:35:43;;;;;;;;;;;;;;;4.55;100.00;96385.25;4986403;28;20097;-46
2022/02/05 01:52:22;;;;;;;3.30;3.10;;;;;;;4.53;100.00;96418.44;4986832;28;20074;-50
2022/02/05 01:55:10;;;;;;;3.30;3.10;;;;;;;4.65;100.00;96411.53;4985665;28;20062;-55
2022/02/05 01:57:49;;;;;;;3.10;2.90;;;;;;;4.45;100.00;96420.78;4986644;28;20092;-51
2022/02/05 02:11:30;;;;;;;3.38;3.17;;;;;;;4.35;100.00;96420.59;4985424;28;20175;-54
2022/02/05 02:19:51;;;;;;;3.80;3.50;;;;;;;4.11;100.00;96462.25;4975204;28;20066;-49
2022/02/05 02:22:27;;;;;;;3.95;3.55;;;;;;;4.14;100.00;96474.28;4984915;28;20072;-47
2022/02/05 02:25:04;;;;;;;4.20;3.90;;;;;;;4.18;100.00;96489.59;4984977;28;20460;-53
2022/02/05 02:27:39;;;;;;;3.97;3.67;;;;;;;4.16;100.00;96490.66;4985639;28;20069;-53
2022/02/05 02:30:15;;;;;;;4.00;3.67;;;;;;;4.14;100.00;96488.16;4984492;28;20077;-50
2022/02/05 02:32:47;;;;;;;4.20;3.90;;;;;;;4.14;100.00;96497.75;4986166;28;20108;-48
2022/02/05 02:35:20;;;;;;;3.85;3.55;;;;;;;4.16;100.00;96494.09;4987125;28;20097;-52
2022/02/05 02:37:51;;;;;;;4.60;4.20;;;;;;;4.19;100.00;96498.28;4984374;28;20078;-52
2022/02/05 02:40:31;;;;;;;5.20;3.72;;;;;;;4.12;100.00;96497.03;4984558;28;20074;-55
2022/02/05 02:43:05;;;;;;;3.65;3.35;;;;;;;4.18;100.00;96507.88;4985921;28;20061;-53
2022/02/05 02:45:34;;;;;;;3.95;3.55;;;;;;;4.14;100.00;96516.03;4982364;28;20698;-53
2022/02/05 02:48:02;;;;;;;5.13;3.70;;;;;;;4.08;100.00;96526.88;4981975;28;20078;-53
2022/02/05 02:56:23;;;;;;;3.38;3.17;;;;;;;3.93;100.00;96526.13;4988236;28;20077;-52
2022/02/05 02:56:31;;;;;;;3.70;3.40;;;;;;;3.86;100.00;96545.75;4967164;28;20120;-54
2022/02/05 02:59:06;;;;;;;3.78;3.50;;;;;;;3.85;100.00;96542.28;4982948;28;21550;-51
2022/02/05 03:01:36;;;;;;;3.30;3.10;;;;;;;3.74;100.00;96544.75;4985942;28;20069;-49
2022/02/05 03:04:05;;;;;;;3.60;3.30;;;;;;;3.75;100.00;96533.38;4983580;28;20081;-56
2022/02/05 03:06:33;;;;;;;3.17;2.97;;;;;;;3.63;100.00;96553.28;4980545;28;20055;-52
2022/02/05 03:09:04;;;;;;;3.42;3.22;;;;;;;3.77;100.00;96555.81;4984069;28;20085;-53
2022/02/05 03:11:33;;;;;;;3.30;3.10;;;;;;;3.68;100.00;96560.81;4982258;28;20062;-51
2022/02/05 03:14:01;;;;;;;3.22;3.03;;;;;;;3.53;100.00;96557.41;4985411;28;20339;-53
2022/02/05 03:16:35;;;;;;;3.03;2.88;;;;;;;3.60;100.00;96560.47;4983989;28;20085;-55
2022/02/05 03:19:11;;;;;;;3.50;3.20;;;;;;;3.47;100.00;96576.06;4984873;28;20062;-54
2022/02/05 03:21:39;;;;;;;3.55;3.25;;;;;;;3.42;100.00;96584.19;4984663;28;20081;-48
2022/02/05 03:24:09;;;;;;;3.13;2.92;;;;;;;3.32;100.00;96585.69;4983777;28;20066;-55
2022/02/05 03:26:38;;;;;;;3.20;3.00;;;;;;;3.29;100.00;96596.31;4982702;28;20100;-50
2022/02/05 03:29:10;;;;;;;3.13;2.97;;;;;;;3.27;100.00;96603.41;4985886;28;20089;-49
2022/02/05 03:31:38;;;;;;;3.00;2.90;;;;;;;3.14;100.00;96603.31;4984661;28;20061;-53
2022/02/05 03:34:07;;;;;;;3.30;3.10;;;;;;;3.14;100.00;96605.94;4983540;28;20073;-48
2022/02/05 03:36:40;;;;;;;3.50;3.30;;;;;;;3.10;100.00;96617.50;4986818;28;20096;-51
2022/02/05 03:39:10;;;;;;;5.40;3.63;;;;;;;3.02;100.00;96617.94;4984638;28;20073;-52
2022/02/05 03:41:38;;;;;;;4.22;3.67;;;;;;;2.93;100.00;96631.53;4983454;28;20569;-53
2022/02/05 03:44:06;;;;;;;3.10;2.95;;;;;;;2.87;100.00;96623.25;4988470;28;20086;-54
2022/02/05 03:46:35;;;;;;;3.78;3.20;;;;;;;2.92;100.00;96636.81;4985977;28;20070;-53
2022/02/05 03:49:03;;;;;;;4.05;3.75;;;;;;;2.79;100.00;96652.38;4987169;28;20112;-53
2022/02/05 03:51:32;;;;;;;3.35;3.15;;;;;;;2.79;100.00;96658.41;4984960;28;20065;-50
2022/02/05 03:54:01;;;;;;;3.72;3.53;;;;;;;2.74;100.00;96663.03;4986144;28;20089;-52
2022/02/05 03:56:31;;;;;;;3.70;3.40;;;;;;;2.72;100.00;96659.72;4985160;28;20082;-54
2022/02/05 03:58:59;;;;;;;3.40;3.17;;;;;;;2.64;100.00;96677.53;4966135;28;20438;-50
2022/02/05 04:01:27;;;;;;;3.97;3.55;;;;;;;2.61;100.00;96677.72;4964498;28;20505;-49
2022/02/05 04:03:56;;;;;;;4.00;3.33;;;;;;;2.66;100.00;96683.50;4973886;28;20070;-53
2022/02/05 04:06:24;;;;;;;4.15;3.38;;;;;;;2.63;100.00;96675.88;4979910;28;20522;-52
2022/02/05 04:08:55;;;;;;;3.80;3.50;;;;;;;2.72;100.00;96684.88;4984205;28;20082;-55
2022/02/05 04:11:32;;;;;;;3.97;3.67;;;;;;;2.58;100.00;96678.75;4983146;28;20511;-53
2022/02/05 04:16:49;;;;;;;3.40;3.20;;;;;;;2.54;100.00;96694.63;4982846;28;20069;-54
2022/02/05 04:19:17;;;;;;;3.40;3.20;;;;;;;2.60;100.00;96696.88;4983480;28;20566;-47
2022/02/05 04:21:46;;;;;;;5.03;3.50;;;;;;;2.55;100.00;96707.56;4983567;28;20763;-54
2022/02/05 04:24:14;;;;;;;3.78;3.42;;;;;;;2.42;100.00;96709.22;4984544;28;20058;-50
2022/02/05 04:26:43;;;;;;;4.32;3.92;;;;;;;2.55;100.00;96707.56;4982163;28;20096;-53
2022/02/05 04:29:13;;;;;;;5.47;4.10;;;;;;;2.49;100.00;96707.91;4984895;28;20078;-54
2022/02/05 04:31:41;;;;;;;4.55;4.10;;;;;;;2.45;100.00;96718.59;4982863;28;20131;-52
2022/02/05 04:34:10;;;;;;;3.97;3.67;;;;;;;2.43;100.00;96730.84;4981885;28;20485;-54
2022/02/05 04:36:39;;;;;;;3.88;3.58;;;;;;;2.33;100.00;96728.78;5014392;28;20532;-50
2022/02/05 04:39:11;;;;;;;4.13;3.60;;;;;;;2.26;100.00;96742.22;4983235;28;20065;-56
2022/02/05 04:41:47;;;;;;;3.60;3.40;;;;;;;2.24;100.00;96746.69;4983240;28;20070;-56
2022/02/05 04:44:28;;;;;;;5.15;3.88;;;;;;;2.18;100.00;96741.81;4982853;28;20548;-51
2022/02/05 04:53:05;;;;;;;9.27;4.00;;;;;;;2.06;100.00;96761.53;4962528;28;20168;-53
2022/02/05 04:58:44;;;;;;;4.40;3.90;;;;;;;2.18;100.00;96768.69;4983615;28;20054;-53
2022/02/05 05:01:21;;;;;;;4.60;4.20;;;;;;;2.26;100.00;96770.84;4985920;28;20085;-50
2022/02/05 05:07:45;;;;;;;4.90;4.10;;;;;;;2.13;100.00;96788.88;4989608;28;20069;-55
2022/02/05 05:09:47;;;;;;;4.13;3.90;;;;;;;2.12;100.00;96785.47;4985572;28;20073;-53
2022/02/05 05:20:52;;;;;;;5.07;3.90;;;;;;;1.68;100.00;96800.88;5016061;28;20077;-50
2022/02/05 05:23:21;;;;;;;5.07;4.13;;;;;;;1.63;100.00;96805.50;4988373;28;20544;-53
2022/02/05 05:25:49;;;;;;;4.47;4.10;;;;;;;1.69;100.00;96801.69;4985210;28;20070;-54
2022/02/05 05:28:18;;;;;;;4.78;4.20;;;;;;;1.53;100.00;96807.72;4984424;28;20066;-54
2022/02/05 05:30:46;;;;;;;4.88;4.18;;;;;;;1.59;100.00;96806.56;5014015;28;20066;-55
2022/02/05 05:33:16;;;;;;;4.32;3.95;;;;;;;1.53;100.00;96812.09;4987777;28;20089;-56
2022/02/05 05:35:44;;;;;;;4.60;4.20;;;;;;;1.51;100.00;96804.34;4990805;28;20085;-53
2022/02/05 05:38:13;;;;;;;4.95;4.60;;;;;;;1.47;100.00;96810.63;4987869;28;20042;-52
2022/02/05 05:40:42;;;;;;;5.35;4.50;;;;;;;1.46;100.00;96808.97;4984687;28;20086;-53
2022/02/05 05:43:23;;;;;;;5.20;4.55;;;;;;;1.45;100.00;96809.91;4985393;28;20096;-55
2022/02/05 05:46:14;;;;;;;4.90;4.47;;;;;;;1.37;100.00;96819.84;4984080;28;20073;-54
2022/02/05 05:48:57;;;;;;;;;;;;;;;1.24;100.00;96811.84;4985521;28;20070;-52
2022/02/05 05:51:26;;;;;;;4.70;4.30;;;;;;;1.36;100.00;96819.00;4985777;28;19965;-57
2022/02/05 05:53:54;;;;;;;4.60;4.20;;;;;;;1.29;100.00;96825.44;4990454;28;20444;-50
2022/02/05 05:56:24;;;;;;;4.65;4.20;;;;;;;1.19;100.00;96822.47;4993130;28;20089;-47
2022/02/05 05:58:53;;;;;;;4.80;4.40;;;;;;;1.21;100.00;96822.41;4986991;28;20077;-52
2022/02/05 06:01:21;;;;;;;4.80;4.35;;;;;;;1.22;100.00;96829.25;4985405;28;20426;-52
2022/02/05 06:03:51;;;;;;;4.85;4.45;;;;;;;1.21;100.00;96827.59;4991488;28;20062;-48
2022/02/05 06:06:19;;;;;;;5.20;4.32;;;;;;;1.25;100.00;96831.72;4990524;28;20077;-51
2022/02/05 06:08:47;;;;;;;5.35;4.85;;;;;;;1.28;100.00;96836.75;4985879;28;20085;-53
2022/02/05 06:11:16;;;;;;;4.85;4.18;;;;;;;1.40;100.00;96838.69;4987845;28;20097;-48
2022/02/05 06:13:44;;;;;;;4.75;4.35;;;;;;;1.31;100.00;96839.19;4982469;28;20086;-51
2022/02/05 06:16:16;;;;;;;4.55;4.25;;;;;;;1.24;100.00;96847.34;4986064;28;20705;-52
2022/02/05 06:18:45;;;;;;;5.15;4.35;;;;;;;1.23;100.00;96856.91;4985621;28;20112;-50
2022/02/05 06:21:14;;;;;;;5.13;4.60;;;;;;;1.14;100.00;96862.59;4986079;28;20070;-48
2022/02/05 06:23:43;;;;;;;5.45;4.68;;;;;;;1.16;100.00;96869.34;4986308;28;20093;-51
2022/02/05 06:26:11;;;;;;;4.50;4.20;;;;;;;1.09;100.00;96872.34;4985328;28;20073;-53
2022/02/05 06:28:40;;;;;;;5.88;5.32;;;;;;;1.13;100.00;96874.72;4985400;28;20088;-51
2022/02/05 06:31:08;;;;;;;5.32;4.93;;;;;;;1.11;100.00;96879.16;4985002;28;20062;-54
2022/02/05 06:33:36;;;;;;;5.60;4.28;;;;;;;1.12;100.00;96880.00;4985992;28;20073;-50
2022/02/05 06:36:05;;;;;;;4.88;4.40;;;;;;;1.05;100.00;96879.44;4985460;28;20074;-51
2022/02/05 06:38:35;;;;;;;5.20;4.70;;;;;;;1.06;100.00;96877.69;4985938;28;20164;-56
2022/02/05 06:41:04;;;;;;;5.20;4.80;;;;;;;1.08;100.00;96876.72;4987892;28;20660;-52
2022/02/05 06:43:32;;;;;;;4.93;4.50;;;;;;;1.17;100.00;96885.78;4985731;28;20070;-53
2022/02/05 06:46:01;;;;;;;5.57;4.88;;;;;;;1.10;100.00;96892.19;4985995;28;20046;-48
2022/02/05 06:48:29;;;;;;;6.13;4.80;;;;;;;1.15;100.00;96892.81;4985947;28;20070;-53
2022/02/05 06:50:58;;;;;;;5.32;4.82;;;;;;;1.13;100.00;96900.69;4985626;28;20677;-53
2022/02/05 06:53:26;;;;;;;4.80;4.32;;;;;;;1.13;100.00;96900.69;4988098;28;20081;-50
2022/02/05 06:55:56;;;;;;;4.90;4.50;;;;;;;1.25;100.00;96906.19;4986171;28;20081;-52
2022/02/05 06:58:24;;;;;;;4.37;4.07;;;;;;;1.32;100.00;96910.19;4986314;28;20070;-53
2022/02/05 07:00:52;;;;;;;5.55;4.95;;;;;;;1.32;100.00;96907.56;4986212;28;20504;-52
2022/02/05 07:03:22;;;;;;;4.82;4.47;;;;;;;1.35;100.00;96905.66;4984899;28;20069;-53
2022/02/05 07:05:50;;;;;;;4.90;4.50;;;;;;;1.41;100.00;96909.69;4985858;28;20097;-52
2022/02/05 07:08:19;;;;;;;5.13;4.72;;;;;;;1.48;100.00;96916.28;4988707;28;20086;-51
2022/02/05 07:10:48;;;;;;;5.22;4.70;;;;;;;1.43;100.00;96918.25;4986049;28;20062;-51
2022/02/05 07:13:20;;;;;;;5.03;4.63;;;;;;;1.55;100.00;96922.00;4985294;28;20156;-52
2022/02/05 07:15:56;;;;;;;5.55;5.05;;;;;;;1.75;100.00;96923.56;4987333;28;20069;-52
2022/02/05 07:18:32;;;;;;;5.55;5.10;;;;;;;1.84;100.00;96925.72;4985355;28;20101;-55
2022/02/05 07:21:04;;;;;;;5.32;4.63;;;;;;;2.09;100.00;96928.69;4984585;28;20129;-48
2022/02/05 07:29:15;;;;;;;5.65;4.97;;;;;;;2.16;100.00;96941.38;4996065;28;20063;-54
2022/02/05 07:31:50;;;;;;;4.95;4.50;;;;;;;2.18;100.00;96942.16;4967828;28;20085;-51
2022/02/05 07:34:21;;;;;;;4.75;4.35;;;;;;;2.06;100.00;96941.03;4979620;28;20193;-48
2022/02/05 07:36:50;;;;;;;4.90;4.50;;;;;;;2.18;100.00;96945.59;4985119;28;20070;-56
2022/02/05 07:39:19;;;;;;;5.18;4.10;;;;;;;2.28;100.00;96944.19;4984207;28;20074;-56
2022/02/05 07:41:47;;;;;;;5.15;4.55;;;;;;;2.23;100.00;96942.75;4984725;28;20081;-53
2022/02/05 07:44:17;;;;;;;4.70;4.30;;;;;;;2.28;100.00;96948.56;4988913;28;20085;-50
2022/02/05 07:46:49;;;;;;;5.05;4.65;;;;;;;2.24;100.00;96947.88;4985515;28;20076;-57
2022/02/05 07:49:19;;;;;;;4.63;4.20;;;;;;;2.29;100.00;96948.47;4984714;28;20070;-55
2022/02/05 07:51:47;;;;;;;6.57;4.35;;;;;;;2.11;100.00;96952.03;4984823;28;20089;-57
2022/02/05 07:54:16;;;;;;;4.68;4.28;;;;;;;2.23;100.00;96956.59;4985771;28;20085;-53
2022/02/05 07:56:45;;;;;;;5.15;4.25;;;;;;;2.30;100.00;96957.09;4984352;28;20109;-55
2022/02/05 07:59:14;;;;;;;17.90;9.93;;;;;;;2.31;100.00;96956.19;4986767;28;20086;-54
2022/02/05 08:01:44;;;;;;;5.85;4.88;;;;;;;2.31;100.00;96951.84;4984618;28;20074;-52
2022/02/05 08:04:13;;;;;;;6.72;5.45;;;;;;;2.35;100.00;96958.53;4984916;28;20521;-49
2022/02/05 08:06:44;;;;;;;7.10;5.90;;;;;;;2.43;100.00;96959.91;4985283;28;20076;-52
2022/02/05 08:09:17;;;;;;;4.45;4.10;;;;;;;2.42;100.00;96961.66;4984621;28;20548;-57
2022/02/05 08:11:50;;;;;;;5.28;4.35;;;;;;;2.61;100.00;96978.00;4987465;28;20082;-53
2022/02/05 08:14:20;;;;;;;4.32;3.92;;;;;;;2.66;100.00;96988.13;4986149;28;20085;-53
2022/02/05 08:16:59;;;;;;;6.47;4.10;;;;;;;2.73;100.00;96999.91;4984815;28;20104;-54
2022/02/05 08:19:27;;;;;;;6.15;4.38;;;;;;;2.84;100.00;96996.72;4985185;28;21102;-51
2022/02/05 08:22:16;;;;;;;6.03;4.07;;;;;;;2.89;100.00;96994.72;4983462;28;20124;-55
2022/02/05 08:24:45;;;;;;;5.65;4.68;;;;;;;2.93;100.00;96993.63;4984988;28;20085;-58
2022/02/05 08:27:14;;;;;;;4.40;4.10;;;;;;;2.89;100.00;96996.44;4983889;28;20070;-52
2022/02/05 08:29:51;;;;;;;4.57;3.88;;;;;;;3.01;100.00;97001.00;4981943;28;20555;-52
2022/02/05 08:32:24;;;;;;;4.78;4.25;;;;;;;3.02;100.00;97010.47;4984799;28;20077;-53
2022/02/05 08:34:53;;;;;;;4.30;3.90;;;;;;;2.90;100.00;97004.19;4982133;28;20062;-54
2022/02/05 08:37:22;;;;;;;4.20;3.90;;;;;;;3.11;100.00;97009.16;4979258;28;20082;-52
2022/02/05 08:39:51;;;;;;;4.03;3.67;;;;;;;3.15;100.00;97011.50;4981035;28;20042;-55
2022/02/05 08:42:20;;;;;;;4.30;3.95;;;;;;;3.31;100.00;97006.28;4981548;28;20481;-59
2022/02/05 08:44:48;;;;;;;4.20;3.70;;;;;;;3.42;100.00;97019.53;4984249;28;20093;-50
2022/02/05 08:47:17;;;;;;;4.22;3.83;;;;;;;3.29;100.00;97002.91;4986114;28;20082;-52
2022/02/05 08:49:47;;;;;;;5.05;3.72;;;;;;;3.43;100.00;97020.38;4982980;28;20140;-53
2022/02/05 08:52:15;;;;;;;4.60;4.20;;;;;;;3.52;100.00;97015.47;4983285;28;20070;-52
2022/02/05 08:54:43;;;;;;;4.30;3.90;;;;;;;3.59;100.00;97015.13;4983739;28;20093;-54
2022/02/05 08:57:13;;;;;;;5.28;3.70;;;;;;;3.50;100.00;97016.47;4983279;28;20510;-55
2022/02/05 08:59:50;;;;;;;3.63;3.40;;;;;;;3.47;100.00;97016.66;4982817;28;20086;-55
2022/02/05 09:02:26;;;;;;;4.85;3.50;;;;;;;3.53;100.00;97003.28;4987507;28;20088;-53
2022/02/05 09:05:05;;;;;;;3.90;3.50;;;;;;;3.56;100.00;97023.97;4981823;28;20077;-54
2022/02/05 09:07:34;;;;;;;3.90;3.60;;;;;;;3.80;100.00;97027.75;4982432;28;20065;-52
2022/02/05 09:10:10;;;;;;;5.03;3.90;;;;;;;3.56;100.00;97023.97;4984393;28;20070;-53
2022/02/05 09:13:07;;;;;;;8.15;3.90;;;;;;;3.77;100.00;97019.28;4983772;28;20070;-50
2022/02/05 09:15:35;;;;;;;4.90;3.42;;;;;;;3.71;100.00;97015.25;4984210;28;20080;-52
2022/02/05 09:18:04;;;;;;;4.47;3.85;;;;;;;3.94;100.00;97016.53;4984878;28;20525;-56
2022/02/05 09:20:34;;;;;;;5.70;4.33;;;;;;;3.98;100.00;97015.41;4986205;28;20524;-50
2022/02/05 09:23:03;;;;;;;8.80;3.97;;;;;;;4.12;100.00;97019.81;4981388;28;20413;-53
2022/02/05 09:25:31;;;;;;;3.80;3.50;;;;;;;4.10;100.00;97013.03;4984108;28;20083;-55
2022/02/05 09:28:00;;;;;;;6.20;3.53;;;;;;;4.19;100.00;97015.91;4984440;28;20070;-57
2022/02/05 09:30:42;;;;;;;4.43;3.42;;;;;;;4.36;100.00;97014.06;4986275;28;20632;-53
2022/02/05 09:33:10;;;;;;;3.88;3.45;;;;;;;4.25;100.00;97006.88;4983621;28;20096;-52
2022/02/05 09:35:40;;;;;;;3.60;3.17;;;;;;;4.16;100.00;97016.09;4983636;28;20081;-59
2022/02/05 09:38:09;;;;;;;3.45;3.25;;;;;;;4.15;100.00;97005.75;4972340;28;20081;-48
2022/02/05 09:40:37;;;;;;;3.25;2.95;;;;;;;4.28;100.00;97012.75;4984678;28;20527;-49
2022/02/05 09:43:06;;;;;;;8.00;3.10;;;;;;;4.24;100.00;97013.03;4986500;28;20070;-53
2022/02/05 09:45:36;;;;;;;3.38;3.00;;;;;;;4.28;100.00;97014.53;4985949;28;20065;-51
2022/02/05 09:48:05;;;;;;;3.92;3.20;;;;;;;4.32;100.00;97025.63;4987004;28;20135;-54
2022/02/05 09:50:34;;;;;;;4.70;3.55;;;;;;;4.34;100.00;97019.38;4989432;28;20630;-56
2022/02/05 09:53:13;;;;;;;4.03;3.30;;;;;;;4.28;100.00;97031.03;4975946;28;20477;-52
2022/02/05 09:55:43;;;;;;;5.10;3.17;;;;;;;4.61;100.00;97034.28;4984571;28;20081;-52
2022/02/05 09:58:11;;;;;;;3.53;3.22;;;;;;;4.40;100.00;97026.81;4985355;28;20073;-48
2022/02/05 10:00:40;;;;;;;5.88;3.45;;;;;;;4.46;100.00;97031.69;4986777;28;20475;-55
2022/02/05 10:03:24;;;;;;;3.80;3.50;;;;;;;4.63;100.00;97035.06;4985366;28;20065;-55
2022/02/05 10:06:09;;;;;;;3.22;3.03;;;;;;;4.98;100.00;97036.31;4984965;28;20085;-51
2022/02/05 10:08:39;;;;;;;4.10;3.00;;;;;;;4.85;100.00;97038.03;4984897;28;20081;-52
2022/02/05 10:11:08;;;;;;;6.05;3.30;;;;;;;4.87;100.00;97028.31;4987281;28;20086;-56
2022/02/05 10:13:38;;;;;;;4.05;3.20;;;;;;;4.72;100.00;97029.28;4986928;28;20077;-50
2022/02/05 10:16:07;;;;;;;2.92;2.55;;;;;;;5.03;100.00;97032.59;4986499;28;20073;-54
2022/02/05 10:18:37;;;;;;;4.07;3.65;;;;;;;4.96;100.00;97026.91;4984465;28;20077;-51
2022/02/05 10:21:20;;;;;;;3.13;2.80;;;;;;;4.91;100.00;97024.56;4987675;28;20516;-50
2022/02/05 10:24:01;;;;;;;5.20;3.70;;;;;;;4.97;100.00;97029.41;4984483;28;20088;-52
2022/02/05 10:26:34;;;;;;;3.88;3.28;;;;;;;4.95;100.00;97028.66;4987265;28;20088;-54
2022/02/05 10:29:06;;;;;;;3.28;3.08;;;;;;;5.50;100.00;97032.16;4980759;28;20062;-50
2022/02/05 10:31:57;;;;;;;4.35;2.92;;;;;;;5.25;100.00;97030.28;4981415;28;20111;-54
2022/02/05 10:34:27;;;;;;;3.55;3.20;;;;;;;5.30;100.00;97028.22;4985114;28;20074;-50
2022/02/05 10:37:15;;;;;;;2.95;2.75;;;;;;;5.22;100.00;97020.84;4987587;28;20069;-52
2022/02/05 10:40:07;;;;;;;3.85;2.97;;;;;;;4.99;100.00;97022.31;4984110;28;20062;-52
2022/02/05 10:45:22;;;;;;;3.47;2.97;;;;;;;5.57;100.00;97022.13;4985287;28;20116;-51
2022/02/05 10:47:53;;;;;;;3.65;3.00;;;;;;;5.91;100.00;97021.59;4983378;28;20105;-53
2022/02/05 10:50:23;;;;;;;3.80;3.05;;;;;;;5.67;100.00;97020.59;4987569;28;20084;-51
2022/02/05 10:52:57;;;;;;;3.08;2.78;;;;;;;5.48;100.00;97016.56;4987861;28;20073;-48
2022/02/05 10:55:54;;;;;;;5.57;3.10;;;;;;;6.03;100.00;97022.59;4983691;28;20066;-50
2022/02/05 10:58:42;;;;;;;3.03;2.78;;;;;;;5.76;100.00;97012.16;4984427;28;20074;-51
2022/02/05 11:07:04;;;;;;;3.67;3.10;;;;;;;5.84;100.00;97012.47;4987621;28;20070;-53
2022/02/05 11:09:32;;;;;;;;;;;;;;;5.98;100.00;97013.38;4984732;28;20449;-53
2022/02/05 11:20:23;;;;;;;4.72;2.72;;;;;;;5.83;100.00;97005.56;4986729;28;20599;-52
2022/02/05 11:22:53;;;;;;;5.32;2.80;;;;;;;6.30;100.00;96998.13;4980890;28;20054;-48
2022/02/05 11:25:22;;;;;;;5.18;2.80;;;;;;;6.31;100.00;97002.41;4983710;28;20058;-48
2022/02/05 11:27:54;;;;;;;5.25;2.95;;;;;;;6.23;100.00;97012.53;4982812;28;20065;-56
2022/02/05 11:30:39;;;;;;;7.93;2.70;;;;;;;6.20;100.00;97005.75;4983059;28;20070;-48
2022/02/05 11:33:21;;;;;;;3.75;2.60;;;;;;;5.94;100.00;97010.13;4982910;28;20084;-54
2022/02/05 11:36:21;;;;;;;4.00;2.60;;;;;;;6.12;100.00;97008.03;4983428;28;20795;-51
2022/02/05 11:38:59;;;;;;;3.10;2.80;;;;;;;5.92;100.00;97020.72;4981042;28;20090;-48
2022/02/05 11:41:29;;;;;;;4.00;2.70;;;;;;;5.97;100.00;97019.56;4987059;28;20082;-53
2022/02/05 11:44:24;;;;;;;4.05;2.83;;;;;;;5.84;100.00;97022.94;4984331;28;20066;-52
2022/02/05 11:47:24;;;;;;;3.05;2.63;;;;;;;5.81;100.00;97025.75;4979208;28;20065;-50
2022/02/05 11:50:29;;;;;;;2.75;2.55;;;;;;;5.90;100.00;97014.69;4980609;28;20073;-51
2022/02/05 11:53:10;;;;;;;5.82;3.03;;;;;;;6.36;100.00;97008.16;4984656;28;20065;-49
2022/02/05 11:55:42;;;;;;;3.25;2.55;;;;;;;6.05;100.00;97012.00;4984317;28;20077;-49
2022/02/05 11:58:13;;;;;;;3.47;2.90;;;;;;;5.85;100.00;97006.31;4982036;28;20069;-48
2022/02/05 12:00:49;;;;;;;3.88;2.80;;;;;;;5.80;100.00;97008.38;4983546;28;20058;-47
2022/02/05 12:03:27;;;;;;;4.57;3.00;;;;;;;5.86;100.00;97009.78;4981569;28;20074;-52
2022/02/05 12:06:01;;;;;;;4.20;3.05;;;;;;;6.27;100.00;97000.94;4982042;28;20082;-50
2022/02/05 12:08:30;;;;;;;3.25;2.90;;;;;;;6.25;100.00;97008.88;4983658;28;20074;-49
2022/02/05 12:11:03;;;;;;;3.45;2.60;;;;;;;5.92;100.00;97009.38;4982272;28;20291;-50
2022/02/05 12:13:36;;;;;;;6.30;2.90;;;;;;;6.13;100.00;97004.50;4984208;28;20066;-58
2022/02/05 12:16:21;;;;;;;3.58;2.80;;;;;;;6.15;100.00;97002.59;4983257;28;20080;-56
2022/02/05 12:18:58;;;;;;;3.42;2.70;;;;;;;6.25;100.00;97008.06;4981256;28;20070;-53
2022/02/05 12:21:30;;;;;;;4.93;2.67;;;;;;;6.30;100.00;97004.19;4982665;28;20105;-51
2022/02/05 12:27:03;;;;;;;5.88;3.53;;;;;;;5.93;100.00;96998.81;4983293;28;20337;-51
2022/02/05 12:29:33;;;;;;;3.40;2.80;;;;;;;5.92;100.00;96988.44;4985971;28;20089;-51
2022/02/05 12:32:06;;;;;;;3.75;3.20;;;;;;;6.15;100.00;96987.72;4983159;28;20597;-52
2022/02/05 12:34:36;;;;;;;3.47;2.60;;;;;;;5.94;100.00;96979.53;4983057;28;20069;-54
2022/02/05 12:37:05;;;;;;;;;;;;;;;6.35;100.00;96994.22;4982681;28;20070;-50
2022/02/05 12:39:35;;;;;;;4.53;2.72;;;;;;;6.59;100.00;96985.63;4983677;28;19972;-50
2022/02/05 12:42:08;;;;;;;3.40;2.67;;;;;;;6.20;100.00;96983.97;4982446;28;20077;-52
2022/02/05 12:44:39;;;;;;;3.45;2.63;;;;;;;6.42;100.00;96976.31;4984654;28;20547;-54
2022/02/05 12:47:14;;;;;;;2.90;2.70;;;;;;;6.82;100.00;96979.59;4983097;28;20548;-53
2022/02/05 12:49:56;;;;;;;3.75;2.50;;;;;;;6.94;100.00;96987.53;4979584;28;20073;-54
2022/02/05 12:52:25;;;;;;;3.45;2.55;;;;;;;7.07;100.00;96977.84;4982689;28;20065;-53
2022/02/05 12:54:58;;;;;;;2.70;2.50;;;;;;;7.06;100.00;96981.44;4983528;28;20065;-55
2022/02/05 12:57:28;;;;;;;4.70;2.47;;;;;;;7.16;100.00;96978.94;4979298;28;20069;-53
2022/02/05 13:00:05;;;;;;;4.10;2.65;;;;;;;7.18;100.00;96970.03;4983227;28;20085;-52
2022/02/05 13:02:35;;;;;;;3.35;2.70;;;;;;;7.07;100.00;96967.34;4983097;28;20481;-52
2022/02/05 13:05:05;;;;;;;5.87;2.93;;;;;;;6.99;100.00;96967.09;4978202;28;21587;-54
2022/02/05 13:07:34;;;;;;;3.25;2.78;;;;;;;7.46;100.00;96950.50;4979269;28;20513;-53
2022/02/05 13:10:06;;;;;;;2.70;2.40;;;;;;;7.20;100.00;96949.78;4981101;28;20481;-54
2022/02/05 13:12:37;;;;;;;3.88;2.47;;;;;;;6.77;100.00;96963.34;4982640;28;20070;-53
2022/02/05 13:15:19;;;;;;;3.40;2.55;;;;;;;6.83;100.00;96962.91;4985033;28;20946;-53
2022/02/05 13:18:05;;;;;;;4.72;2.47;;;;;;;6.92;100.00;96955.31;4987024;28;20082;-53
2022/02/05 13:26:15;;;;;;;3.22;2.45;;;;;;;6.74;100.00;96950.44;4985436;28;20608;-51
2022/02/05 13:28:50;;;;;;;4.43;2.90;;;;;;;7.32;100.00;96950.66;4984570;28;20077;-54
2022/02/05 13:34:15;;;;;;;3.80;2.70;;;;;;;6.80;100.00;96943.94;4986924;28;20145;-51
2022/02/05 13:36:51;;;;;;;3.53;2.70;;;;;;;6.85;100.00;96949.72;4986737;28;20548;-53
2022/02/05 13:39:41;;;;;;;5.10;2.85;;;;;;;6.80;100.00;96947.41;4987650;28;20074;-56
2022/02/05 13:42:18;;;;;;;4.25;2.70;;;;;;;7.19;100.00;96942.00;4986072;28;20077;-49
2022/02/05 13:44:58;;;;;;;4.35;2.70;;;;;;;7.15;100.00;96936.16;4983330;28;20078;-52
2022/02/05 13:47:29;;;;;;;3.47;2.60;;;;;;;7.18;100.00;96961.34;4987488;28;20482;-57
2022/02/05 13:52:44;;;;;;;3.38;2.58;;;;;;;6.75;100.00;96964.41;4969643;28;20113;-55
2022/02/05 13:55:19;;;;;;;5.85;2.80;;;;;;;7.13;100.00;96957.25;4979549;28;20066;-56
2022/02/05 13:58:04;;;;;;;4.78;2.88;;;;;;;6.93;100.00;96957.88;4984349;28;20501;-54
2022/02/05 14:00:47;;;;;;;4.13;2.53;;;;;;;7.34;100.00;96960.09;4983141;28;20140;-55
2022/02/05 14:03:17;;;;;;;2.95;2.65;;;;;;;7.23;100.00;96956.59;4982911;28;20074;-52